sensor_id;sensor_type;location;lat;lon;timestamp;P1;durP1;ratioP1;P2;durP2;ratioP2
10661;SDS011;5379;51.034;7.006;2024-02-14T00:00:24;1.13;;;1.13;;
10661;SDS011;5379;51.034;7.006;2024-02-14T00:02:51;1.30;;;1.23;;
10661;SDS011;5379;51.034;7.006;2024-02-14T00:05:18;3.60;;;2.00;;
10661;SDS011;5379;51.034;7.006;2024-02-14T00:07:47;2.77;;;1.40;;
10661;SDS011;5379;51.034;7.006;2024-02-14T00:10:14;3.73;;;1.80;;
10661;SDS011;5379;51.034;7.006;2024-02-14T00:12:41;1.20;;;1.20;;
10661;SDS011;5379;51.034;7.006;2024-02-14T00:15:09;1.13;;;1.03;;
10661;SDS011;5379;51.034;7.006;2024-02-14T00:17:37;4.83;;;1.53;;
10661;SDS011;5379;51.034;7.006;2024-02-14T00:20:04;1.20;;;1.20;;
10661;SDS011;5379;51.034;7.006;2024-02-14T00:22:32;1.00;;;1.00;;
10661;SDS011;5379;51.034;7.006;2024-02-14T00:24:59;0.90;;;0.90;;
10661;SDS011;5379;51.034;7.006;2024-02-14T00:27:26;10.10;;;1.30;;
10661;SDS011;5379;51.034;7.006;2024-02-14T00:29:53;1.20;;;1.10;;
10661;SDS011;5379;51.034;7.006;2024-02-14T00:32:22;1.27;;;1.17;;
10661;SDS011;5379;51.034;7.006;2024-02-14T00:34:49;1.70;;;1.30;;
10661;SDS011;5379;51.034;7.006;2024-02-14T00:37:16;0.80;;;0.80;;
10661;SDS011;5379;51.034;7.006;2024-02-14T00:39:43;0.80;;;0.80;;
10661;SDS011;5379;51.034;7.006;2024-02-14T00:42:11;0.60;;;0.60;;
10661;SDS011;5379;51.034;7.006;2024-02-14T00:44:40;0.93;;;0.93;;
10661;SDS011;5379;51.034;7.006;2024-02-14T00:47:07;0.77;;;0.77;;
10661;SDS011;5379;51.034;7.006;2024-02-14T00:49:35;3.50;;;0.70;;
10661;SDS011;5379;51.034;7.006;2024-02-14T00:52:08;0.70;;;0.70;;
10661;SDS011;5379;51.034;7.006;2024-02-14T00:54:35;1.20;;;0.90;;
10661;SDS011;5379;51.034;7.006;2024-02-14T00:57:02;0.70;;;0.70;;
10661;SDS011;5379;51.034;7.006;2024-02-14T00:59:30;1.13;;;0.97;;
10661;SDS011;5379;51.034;7.006;2024-02-14T05:31:10;0.83;;;0.43;;
10661;SDS011;5379;51.034;7.006;2024-02-14T05:33:37;1.03;;;0.70;;
10661;SDS011;5379;51.034;7.006;2024-02-14T05:36:04;0.40;;;0.40;;
10661;SDS011;5379;51.034;7.006;2024-02-14T05:38:31;0.50;;;0.50;;
10661;SDS011;5379;51.034;7.006;2024-02-14T05:40:59;0.60;;;0.60;;
10661;SDS011;5379;51.034;7.006;2024-02-14T05:43:26;0.30;;;0.30;;
10661;SDS011;5379;51.034;7.006;2024-02-14T05:45:54;0.97;;;0.90;;
10661;SDS011;5379;51.034;7.006;2024-02-14T05:48:22;1.07;;;0.80;;
10661;SDS011;5379;51.034;7.006;2024-02-14T05:50:49;0.67;;;0.67;;
10661;SDS011;5379;51.034;7.006;2024-02-14T05:53:16;0.90;;;0.90;;
10661;SDS011;5379;51.034;7.006;2024-02-14T05:55:44;0.60;;;0.60;;
10661;SDS011;5379;51.034;7.006;2024-02-14T05:58:10;0.70;;;0.70;;
10661;SDS011;5379;51.034;7.006;2024-02-14T06:00:38;0.47;;;0.47;;
10661;SDS011;5379;51.034;7.006;2024-02-14T06:03:05;0.47;;;0.47;;
10661;SDS011;5379;51.034;7.006;2024-02-14T06:05:33;0.57;;;0.57;;
10661;SDS011;5379;51.034;7.006;2024-02-14T06:08:01;0.60;;;0.60;;
10661;SDS011;5379;51.034;7.006;2024-02-14T06:10:29;1.10;;;0.80;;
10661;SDS011;5379;51.034;7.006;2024-02-14T06:12:55;0.63;;;0.63;;
10661;SDS011;5379;51.034;7.006;2024-02-14T06:15:24;0.70;;;0.70;;
10661;SDS011;5379;51.034;7.006;2024-02-14T06:17:51;6.70;;;1.07;;
10661;SDS011;5379;51.034;7.006;2024-02-14T06:20:18;0.80;;;0.80;;
10661;SDS011;5379;51.034;7.006;2024-02-14T06:22:46;0.60;;;0.60;;
10661;SDS011;5379;51.034;7.006;2024-02-14T06:25:13;0.63;;;0.63;;
10661;SDS011;5379;51.034;7.006;2024-02-14T06:27:41;0.70;;;0.70;;
10661;SDS011;5379;51.034;7.006;2024-02-14T06:30:09;0.90;;;0.90;;
10661;SDS011;5379;51.034;7.006;2024-02-14T06:32:37;0.90;;;0.90;;
10661;SDS011;5379;51.034;7.006;2024-02-14T06:35:04;1.17;;;1.17;;
10661;SDS011;5379;51.034;7.006;2024-02-14T06:37:32;1.23;;;0.90;;
10661;SDS011;5379;51.034;7.006;2024-02-14T06:40:00;2.07;;;1.37;;
10661;SDS011;5379;51.034;7.006;2024-02-14T06:42:27;0.53;;;0.53;;
10661;SDS011;5379;51.034;7.006;2024-02-14T06:44:54;0.90;;;0.60;;
10661;SDS011;5379;51.034;7.006;2024-02-14T06:47:21;3.40;;;1.10;;
10661;SDS011;5379;51.034;7.006;2024-02-14T06:49:48;1.07;;;1.03;;
10661;SDS011;5379;51.034;7.006;2024-02-14T06:52:15;1.40;;;1.07;;
10661;SDS011;5379;51.034;7.006;2024-02-14T06:54:42;0.93;;;0.90;;
10661;SDS011;5379;51.034;7.006;2024-02-14T06:57:12;0.90;;;0.90;;
10661;SDS011;5379;51.034;7.006;2024-02-14T06:59:39;1.27;;;1.20;;
10661;SDS011;5379;51.034;7.006;2024-02-14T07:02:06;1.10;;;1.00;;
10661;SDS011;5379;51.034;7.006;2024-02-14T07:04:33;0.90;;;0.90;;
10661;SDS011;5379;51.034;7.006;2024-02-14T07:07:00;2.23;;;0.93;;
10661;SDS011;5379;51.034;7.006;2024-02-14T07:09:27;1.27;;;1.27;;
10661;SDS011;5379;51.034;7.006;2024-02-14T07:11:54;0.90;;;0.90;;
10661;SDS011;5379;51.034;7.006;2024-02-14T07:14:24;1.00;;;1.00;;
10661;SDS011;5379;51.034;7.006;2024-02-14T07:16:51;0.80;;;0.80;;
10661;SDS011;5379;51.034;7.006;2024-02-14T07:19:19;1.10;;;1.10;;
10661;SDS011;5379;51.034;7.006;2024-02-14T07:21:45;5.57;;;1.10;;
10661;SDS011;5379;51.034;7.006;2024-02-14T07:24:12;1.00;;;1.00;;
10661;SDS011;5379;51.034;7.006;2024-02-14T07:26:40;0.80;;;0.80;;
10661;SDS011;5379;51.034;7.006;2024-02-14T07:29:09;0.47;;;0.47;;
10661;SDS011;5379;51.034;7.006;2024-02-14T07:31:38;0.70;;;0.70;;
10661;SDS011;5379;51.034;7.006;2024-02-14T07:34:05;0.90;;;0.90;;
10661;SDS011;5379;51.034;7.006;2024-02-14T07:36:32;0.87;;;0.87;;
10661;SDS011;5379;51.034;7.006;2024-02-14T07:38:59;0.67;;;0.67;;
10661;SDS011;5379;51.034;7.006;2024-02-14T07:41:26;0.90;;;0.90;;
10661;SDS011;5379;51.034;7.006;2024-02-14T07:43:53;0.53;;;0.53;;
10661;SDS011;5379;51.034;7.006;2024-02-14T07:46:21;0.70;;;0.70;;
10661;SDS011;5379;51.034;7.006;2024-02-14T07:48:52;0.60;;;0.60;;
10661;SDS011;5379;51.034;7.006;2024-02-14T07:51:19;0.60;;;0.60;;
10661;SDS011;5379;51.034;7.006;2024-02-14T07:53:47;0.80;;;0.73;;
10661;SDS011;5379;51.034;7.006;2024-02-14T07:56:15;0.80;;;0.80;;
10661;SDS011;5379;51.034;7.006;2024-02-14T07:58:43;0.60;;;0.60;;
10661;SDS011;5379;51.034;7.006;2024-02-14T08:01:10;0.63;;;0.63;;
10661;SDS011;5379;51.034;7.006;2024-02-14T08:03:37;0.60;;;0.60;;
10661;SDS011;5379;51.034;7.006;2024-02-14T08:06:05;3.40;;;1.97;;
10661;SDS011;5379;51.034;7.006;2024-02-14T08:08:32;1.60;;;1.50;;
10661;SDS011;5379;51.034;7.006;2024-02-14T08:11:00;0.60;;;0.60;;
10661;SDS011;5379;51.034;7.006;2024-02-14T08:13:28;0.53;;;0.53;;
10661;SDS011;5379;51.034;7.006;2024-02-14T08:15:55;0.60;;;0.60;;
10661;SDS011;5379;51.034;7.006;2024-02-14T08:18:23;0.60;;;0.60;;
10661;SDS011;5379;51.034;7.006;2024-02-14T08:20:52;0.70;;;0.70;;
10661;SDS011;5379;51.034;7.006;2024-02-14T08:23:21;0.80;;;0.80;;
10661;SDS011;5379;51.034;7.006;2024-02-14T08:25:48;0.80;;;0.80;;
10661;SDS011;5379;51.034;7.006;2024-02-14T08:28:14;0.83;;;0.73;;
10661;SDS011;5379;51.034;7.006;2024-02-14T08:30:43;0.97;;;0.83;;
10661;SDS011;5379;51.034;7.006;2024-02-14T08:33:10;0.70;;;0.70;;
10661;SDS011;5379;51.034;7.006;2024-02-14T08:35:38;1.23;;;0.70;;
10661;SDS011;5379;51.034;7.006;2024-02-14T08:38:05;0.87;;;0.87;;
10661;SDS011;5379;51.034;7.006;2024-02-14T08:40:34;0.57;;;0.57;;
10661;SDS011;5379;51.034;7.006;2024-02-14T08:43:01;0.60;;;0.60;;
10661;SDS011;5379;51.034;7.006;2024-02-14T08:45:29;1.00;;;0.90;;
10661;SDS011;5379;51.034;7.006;2024-02-14T08:47:56;0.70;;;0.70;;
10661;SDS011;5379;51.034;7.006;2024-02-14T08:50:24;0.70;;;0.70;;
10661;SDS011;5379;51.034;7.006;2024-02-14T08:52:51;0.83;;;0.83;;
10661;SDS011;5379;51.034;7.006;2024-02-14T08:55:18;0.93;;;0.70;;
10661;SDS011;5379;51.034;7.006;2024-02-14T08:57:46;0.43;;;0.43;;
10661;SDS011;5379;51.034;7.006;2024-02-14T09:00:14;3.77;;;1.10;;
10661;SDS011;5379;51.034;7.006;2024-02-14T09:02:45;0.60;;;0.60;;
10661;SDS011;5379;51.034;7.006;2024-02-14T09:05:13;0.50;;;0.50;;
10661;SDS011;5379;51.034;7.006;2024-02-14T09:07:39;0.50;;;0.50;;
10661;SDS011;5379;51.034;7.006;2024-02-14T09:10:07;0.50;;;0.50;;
10661;SDS011;5379;51.034;7.006;2024-02-14T09:12:35;0.60;;;0.60;;
10661;SDS011;5379;51.034;7.006;2024-02-14T09:15:04;0.50;;;0.50;;
10661;SDS011;5379;51.034;7.006;2024-02-14T09:17:32;0.23;;;0.23;;
10661;SDS011;5379;51.034;7.006;2024-02-14T09:19:59;1.50;;;0.40;;
10661;SDS011;5379;51.034;7.006;2024-02-14T09:22:27;0.57;;;0.57;;
10661;SDS011;5379;51.034;7.006;2024-02-14T09:24:54;0.40;;;0.40;;
10661;SDS011;5379;51.034;7.006;2024-02-14T09:27:21;1.03;;;0.63;;
10661;SDS011;5379;51.034;7.006;2024-02-14T09:29:49;0.60;;;0.60;;
10661;SDS011;5379;51.034;7.006;2024-02-14T09:32:17;0.70;;;0.70;;
10661;SDS011;5379;51.034;7.006;2024-02-14T09:34:44;0.40;;;0.30;;
10661;SDS011;5379;51.034;7.006;2024-02-14T09:37:12;16.13;;;0.77;;
10661;SDS011;5379;51.034;7.006;2024-02-14T09:39:39;0.30;;;0.30;;
10661;SDS011;5379;51.034;7.006;2024-02-14T09:42:09;0.40;;;0.40;;
10661;SDS011;5379;51.034;7.006;2024-02-14T09:44:39;0.40;;;0.40;;
10661;SDS011;5379;51.034;7.006;2024-02-14T09:47:07;0.70;;;0.60;;
10661;SDS011;5379;51.034;7.006;2024-02-14T09:49:37;1.67;;;0.63;;
10661;SDS011;5379;51.034;7.006;2024-02-14T09:52:06;0.50;;;0.50;;
10661;SDS011;5379;51.034;7.006;2024-02-14T09:54:36;0.73;;;0.67;;
10661;SDS011;5379;51.034;7.006;2024-02-14T09:57:04;1.50;;;0.50;;
10661;SDS011;5379;51.034;7.006;2024-02-14T09:59:32;0.33;;;0.33;;
10661;SDS011;5379;51.034;7.006;2024-02-14T10:01:59;1.97;;;0.87;;
10661;SDS011;5379;51.034;7.006;2024-02-14T10:04:27;0.40;;;0.33;;
10661;SDS011;5379;51.034;7.006;2024-02-14T10:06:55;0.50;;;0.50;;
10661;SDS011;5379;51.034;7.006;2024-02-14T10:09:23;0.63;;;0.50;;
10661;SDS011;5379;51.034;7.006;2024-02-14T10:11:50;0.50;;;0.50;;
10661;SDS011;5379;51.034;7.006;2024-02-14T10:14:17;1.50;;;0.80;;
10661;SDS011;5379;51.034;7.006;2024-02-14T10:16:44;0.30;;;0.30;;
10661;SDS011;5379;51.034;7.006;2024-02-14T10:19:15;0.33;;;0.33;;
10661;SDS011;5379;51.034;7.006;2024-02-14T10:21:42;0.43;;;0.43;;
10661;SDS011;5379;51.034;7.006;2024-02-14T10:24:10;0.63;;;0.53;;
10661;SDS011;5379;51.034;7.006;2024-02-14T10:26:39;2.07;;;0.60;;
10661;SDS011;5379;51.034;7.006;2024-02-14T10:29:08;1.83;;;0.50;;
10661;SDS011;5379;51.034;7.006;2024-02-14T10:31:37;1.60;;;0.57;;
10661;SDS011;5379;51.034;7.006;2024-02-14T10:34:03;0.50;;;0.50;;
10661;SDS011;5379;51.034;7.006;2024-02-14T10:36:32;0.60;;;0.50;;
10661;SDS011;5379;51.034;7.006;2024-02-14T10:39:00;0.50;;;0.50;;
10661;SDS011;5379;51.034;7.006;2024-02-14T10:41:30;1.27;;;0.63;;
10661;SDS011;5379;51.034;7.006;2024-02-14T10:44:00;0.50;;;0.50;;
10661;SDS011;5379;51.034;7.006;2024-02-14T10:46:28;0.23;;;0.23;;
10661;SDS011;5379;51.034;7.006;2024-02-14T10:49:02;0.60;;;0.60;;
10661;SDS011;5379;51.034;7.006;2024-02-14T10:51:30;1.63;;;0.40;;
10661;SDS011;5379;51.034;7.006;2024-02-14T10:53:58;0.30;;;0.30;;
10661;SDS011;5379;51.034;7.006;2024-02-14T10:56:27;0.93;;;0.33;;
10661;SDS011;5379;51.034;7.006;2024-02-14T10:58:57;0.40;;;0.40;;
10661;SDS011;5379;51.034;7.006;2024-02-14T11:01:24;1.40;;;0.77;;
10661;SDS011;5379;51.034;7.006;2024-02-14T11:03:53;0.60;;;0.60;;
10661;SDS011;5379;51.034;7.006;2024-02-14T11:06:21;0.37;;;0.37;;
10661;SDS011;5379;51.034;7.006;2024-02-14T11:08:57;0.47;;;0.47;;
10661;SDS011;5379;51.034;7.006;2024-02-14T11:11:27;0.40;;;0.40;;
10661;SDS011;5379;51.034;7.006;2024-02-14T11:13:57;0.70;;;0.70;;
10661;SDS011;5379;51.034;7.006;2024-02-14T11:16:27;1.37;;;0.83;;
10661;SDS011;5379;51.034;7.006;2024-02-14T11:19:05;1.40;;;0.97;;
10661;SDS011;5379;51.034;7.006;2024-02-14T11:21:35;0.40;;;0.20;;
10661;SDS011;5379;51.034;7.006;2024-02-14T11:24:06;2.23;;;0.50;;
10661;SDS011;5379;51.034;7.006;2024-02-14T11:26:40;0.63;;;0.50;;
10661;SDS011;5379;51.034;7.006;2024-02-14T11:29:15;0.50;;;0.50;;
10661;SDS011;5379;51.034;7.006;2024-02-14T11:31:43;0.70;;;0.63;;
10661;SDS011;5379;51.034;7.006;2024-02-14T11:34:11;0.50;;;0.50;;
10661;SDS011;5379;51.034;7.006;2024-02-14T11:36:39;1.97;;;0.67;;
10661;SDS011;5379;51.034;7.006;2024-02-14T11:39:07;0.50;;;0.50;;
10661;SDS011;5379;51.034;7.006;2024-02-14T11:41:34;0.77;;;0.50;;
10661;SDS011;5379;51.034;7.006;2024-02-14T11:44:03;0.77;;;0.63;;
10661;SDS011;5379;51.034;7.006;2024-02-14T11:46:32;2.73;;;0.90;;
10661;SDS011;5379;51.034;7.006;2024-02-14T11:49:00;0.40;;;0.40;;
10661;SDS011;5379;51.034;7.006;2024-02-14T11:51:28;0.60;;;0.60;;
10661;SDS011;5379;51.034;7.006;2024-02-14T11:53:57;0.57;;;0.57;;
10661;SDS011;5379;51.034;7.006;2024-02-14T11:56:29;0.40;;;0.40;;
10661;SDS011;5379;51.034;7.006;2024-02-14T11:58:59;0.57;;;0.57;;
10661;SDS011;5379;51.034;7.006;2024-02-14T12:01:27;0.73;;;0.73;;
10661;SDS011;5379;51.034;7.006;2024-02-14T12:03:57;1.33;;;0.73;;
10661;SDS011;5379;51.034;7.006;2024-02-14T12:06:25;0.57;;;0.33;;
10661;SDS011;5379;51.034;7.006;2024-02-14T12:08:53;1.23;;;0.53;;
10661;SDS011;5379;51.034;7.006;2024-02-14T12:11:20;0.27;;;0.27;;
10661;SDS011;5379;51.034;7.006;2024-02-14T12:13:49;0.47;;;0.47;;
10661;SDS011;5379;51.034;7.006;2024-02-14T12:16:19;0.50;;;0.50;;
10661;SDS011;5379;51.034;7.006;2024-02-14T12:18:46;0.47;;;0.40;;
10661;SDS011;5379;51.034;7.006;2024-02-14T12:21:15;0.23;;;0.23;;
10661;SDS011;5379;51.034;7.006;2024-02-14T12:23:42;0.60;;;0.60;;
10661;SDS011;5379;51.034;7.006;2024-02-14T12:26:10;0.10;;;0.10;;
10661;SDS011;5379;51.034;7.006;2024-02-14T12:28:45;2.07;;;0.57;;
10661;SDS011;5379;51.034;7.006;2024-02-14T12:31:13;0.60;;;0.60;;
10661;SDS011;5379;51.034;7.006;2024-02-14T12:33:48;0.23;;;0.23;;
10661;SDS011;5379;51.034;7.006;2024-02-14T12:36:16;0.20;;;0.20;;
10661;SDS011;5379;51.034;7.006;2024-02-14T12:38:43;1.60;;;0.50;;
10661;SDS011;5379;51.034;7.006;2024-02-14T12:41:10;0.70;;;0.30;;
10661;SDS011;5379;51.034;7.006;2024-02-14T12:43:37;0.70;;;0.27;;
10661;SDS011;5379;51.034;7.006;2024-02-14T12:46:04;0.20;;;0.20;;
10661;SDS011;5379;51.034;7.006;2024-02-14T12:48:31;0.40;;;0.40;;
10661;SDS011;5379;51.034;7.006;2024-02-14T12:50:58;0.27;;;0.27;;
10661;SDS011;5379;51.034;7.006;2024-02-14T12:53:26;0.77;;;0.63;;
10661;SDS011;5379;51.034;7.006;2024-02-14T12:55:53;0.30;;;0.30;;
10661;SDS011;5379;51.034;7.006;2024-02-14T12:58:20;0.40;;;0.40;;
10661;SDS011;5379;51.034;7.006;2024-02-14T13:00:48;0.40;;;0.40;;
10661;SDS011;5379;51.034;7.006;2024-02-14T13:03:14;0.50;;;0.50;;
10661;SDS011;5379;51.034;7.006;2024-02-14T13:05:42;0.80;;;0.53;;
10661;SDS011;5379;51.034;7.006;2024-02-14T13:08:09;0.30;;;0.30;;
10661;SDS011;5379;51.034;7.006;2024-02-14T13:10:37;0.50;;;0.50;;
10661;SDS011;5379;51.034;7.006;2024-02-14T13:13:04;0.80;;;0.70;;
10661;SDS011;5379;51.034;7.006;2024-02-14T13:15:31;0.37;;;0.37;;
10661;SDS011;5379;51.034;7.006;2024-02-14T13:17:58;0.43;;;0.43;;
10661;SDS011;5379;51.034;7.006;2024-02-14T13:20:25;1.00;;;0.60;;
10661;SDS011;5379;51.034;7.006;2024-02-14T13:22:53;0.47;;;0.47;;
10661;SDS011;5379;51.034;7.006;2024-02-14T13:25:19;0.50;;;0.50;;
10661;SDS011;5379;51.034;7.006;2024-02-14T13:27:49;0.57;;;0.57;;
10661;SDS011;5379;51.034;7.006;2024-02-14T13:30:15;0.20;;;0.20;;
10661;SDS011;5379;51.034;7.006;2024-02-14T13:32:43;0.97;;;0.80;;
10661;SDS011;5379;51.034;7.006;2024-02-14T13:35:10;0.40;;;0.40;;
10661;SDS011;5379;51.034;7.006;2024-02-14T13:37:38;0.30;;;0.30;;
10661;SDS011;5379;51.034;7.006;2024-02-14T13:40:06;0.30;;;0.30;;
10661;SDS011;5379;51.034;7.006;2024-02-14T13:42:35;0.47;;;0.47;;
10661;SDS011;5379;51.034;7.006;2024-02-14T13:45:04;0.43;;;0.43;;
10661;SDS011;5379;51.034;7.006;2024-02-14T13:47:34;0.47;;;0.47;;
10661;SDS011;5379;51.034;7.006;2024-02-14T13:50:04;0.47;;;0.47;;
10661;SDS011;5379;51.034;7.006;2024-02-14T13:52:31;0.37;;;0.37;;
10661;SDS011;5379;51.034;7.006;2024-02-14T13:54:59;0.30;;;0.30;;
10661;SDS011;5379;51.034;7.006;2024-02-14T13:57:27;0.20;;;0.20;;
10661;SDS011;5379;51.034;7.006;2024-02-14T13:59:54;0.10;;;0.10;;
10661;SDS011;5379;51.034;7.006;2024-02-14T14:02:23;0.30;;;0.30;;
10661;SDS011;5379;51.034;7.006;2024-02-14T14:04:50;0.70;;;0.70;;
10661;SDS011;5379;51.034;7.006;2024-02-14T14:07:18;0.37;;;0.37;;
10661;SDS011;5379;51.034;7.006;2024-02-14T14:09:45;0.93;;;0.53;;
10661;SDS011;5379;51.034;7.006;2024-02-14T14:12:12;0.90;;;0.40;;
10661;SDS011;5379;51.034;7.006;2024-02-14T14:14:39;0.40;;;0.40;;
10661;SDS011;5379;51.034;7.006;2024-02-14T14:17:06;0.27;;;0.23;;
10661;SDS011;5379;51.034;7.006;2024-02-14T14:19:34;0.20;;;0.20;;
10661;SDS011;5379;51.034;7.006;2024-02-14T14:22:02;0.43;;;0.43;;
10661;SDS011;5379;51.034;7.006;2024-02-14T14:24:29;0.30;;;0.30;;
10661;SDS011;5379;51.034;7.006;2024-02-14T14:26:56;0.20;;;0.20;;
10661;SDS011;5379;51.034;7.006;2024-02-14T14:29:23;0.30;;;0.30;;
10661;SDS011;5379;51.034;7.006;2024-02-14T14:31:50;0.50;;;0.50;;
10661;SDS011;5379;51.034;7.006;2024-02-14T14:34:17;0.30;;;0.30;;
10661;SDS011;5379;51.034;7.006;2024-02-14T14:36:46;0.50;;;0.50;;
10661;SDS011;5379;51.034;7.006;2024-02-14T14:39:12;0.60;;;0.60;;
10661;SDS011;5379;51.034;7.006;2024-02-14T14:41:39;0.30;;;0.30;;
10661;SDS011;5379;51.034;7.006;2024-02-14T14:44:07;0.30;;;0.30;;
10661;SDS011;5379;51.034;7.006;2024-02-14T14:46:34;0.50;;;0.50;;
10661;SDS011;5379;51.034;7.006;2024-02-14T14:49:04;3.47;;;0.57;;
10661;SDS011;5379;51.034;7.006;2024-02-14T14:51:31;0.47;;;0.47;;
10661;SDS011;5379;51.034;7.006;2024-02-14T14:53:59;0.80;;;0.80;;
10661;SDS011;5379;51.034;7.006;2024-02-14T14:56:26;0.60;;;0.60;;
10661;SDS011;5379;51.034;7.006;2024-02-14T14:58:54;1.80;;;0.70;;
10661;SDS011;5379;51.034;7.006;2024-02-14T15:01:21;0.40;;;0.40;;
10661;SDS011;5379;51.034;7.006;2024-02-14T15:03:48;0.27;;;0.27;;
10661;SDS011;5379;51.034;7.006;2024-02-14T15:06:17;0.57;;;0.57;;
10661;SDS011;5379;51.034;7.006;2024-02-14T15:08:44;0.97;;;0.97;;
10661;SDS011;5379;51.034;7.006;2024-02-14T15:11:14;0.30;;;0.30;;
10661;SDS011;5379;51.034;7.006;2024-02-14T15:13:43;0.50;;;0.50;;
10661;SDS011;5379;51.034;7.006;2024-02-14T15:16:10;0.53;;;0.50;;
10661;SDS011;5379;51.034;7.006;2024-02-14T15:18:38;0.40;;;0.40;;
10661;SDS011;5379;51.034;7.006;2024-02-14T15:21:05;0.87;;;0.50;;
10661;SDS011;5379;51.034;7.006;2024-02-14T15:23:33;0.93;;;0.93;;
10661;SDS011;5379;51.034;7.006;2024-02-14T15:26:00;1.33;;;1.00;;
10661;SDS011;5379;51.034;7.006;2024-02-14T15:28:30;1.47;;;0.93;;
10661;SDS011;5379;51.034;7.006;2024-02-14T15:30:59;0.87;;;0.87;;
10661;SDS011;5379;51.034;7.006;2024-02-14T15:33:42;1.63;;;1.53;;
10661;SDS011;5379;51.034;7.006;2024-02-14T15:36:09;0.90;;;0.90;;
10661;SDS011;5379;51.034;7.006;2024-02-14T15:38:36;1.07;;;1.07;;
10661;SDS011;5379;51.034;7.006;2024-02-14T15:41:03;1.00;;;1.00;;
10661;SDS011;5379;51.034;7.006;2024-02-14T15:43:34;1.20;;;1.10;;
10661;SDS011;5379;51.034;7.006;2024-02-14T15:46:01;1.60;;;1.40;;
10661;SDS011;5379;51.034;7.006;2024-02-14T15:48:28;2.43;;;0.93;;
10661;SDS011;5379;51.034;7.006;2024-02-14T15:50:55;0.97;;;0.97;;
10661;SDS011;5379;51.034;7.006;2024-02-14T15:53:23;1.17;;;1.17;;
10661;SDS011;5379;51.034;7.006;2024-02-14T15:55:52;0.97;;;0.97;;
10661;SDS011;5379;51.034;7.006;2024-02-14T15:58:18;1.07;;;1.07;;
10661;SDS011;5379;51.034;7.006;2024-02-14T16:00:47;1.67;;;0.57;;
10661;SDS011;5379;51.034;7.006;2024-02-14T16:03:14;0.80;;;0.80;;
10661;SDS011;5379;51.034;7.006;2024-02-14T16:05:40;1.00;;;1.00;;
10661;SDS011;5379;51.034;7.006;2024-02-14T16:08:10;1.23;;;1.13;;
10661;SDS011;5379;51.034;7.006;2024-02-14T16:10:41;2.30;;;1.43;;
10661;SDS011;5379;51.034;7.006;2024-02-14T16:13:09;1.43;;;0.70;;
10661;SDS011;5379;51.034;7.006;2024-02-14T16:15:36;1.80;;;1.23;;
10661;SDS011;5379;51.034;7.006;2024-02-14T16:18:05;1.37;;;1.30;;
10661;SDS011;5379;51.034;7.006;2024-02-14T16:20:32;1.27;;;1.27;;
10661;SDS011;5379;51.034;7.006;2024-02-14T16:22:59;4.13;;;2.33;;
10661;SDS011;5379;51.034;7.006;2024-02-14T16:25:26;3.80;;;1.50;;
10661;SDS011;5379;51.034;7.006;2024-02-14T16:27:55;0.93;;;0.93;;
10661;SDS011;5379;51.034;7.006;2024-02-14T16:30:22;0.80;;;0.80;;
10661;SDS011;5379;51.034;7.006;2024-02-14T16:32:49;4.83;;;1.60;;
10661;SDS011;5379;51.034;7.006;2024-02-14T16:35:17;0.80;;;0.80;;
10661;SDS011;5379;51.034;7.006;2024-02-14T16:37:45;1.00;;;1.00;;
10661;SDS011;5379;51.034;7.006;2024-02-14T16:40:12;0.83;;;0.83;;
10661;SDS011;5379;51.034;7.006;2024-02-14T16:42:39;0.97;;;0.97;;
10661;SDS011;5379;51.034;7.006;2024-02-14T16:45:06;2.33;;;1.60;;
10661;SDS011;5379;51.034;7.006;2024-02-14T16:47:33;2.00;;;1.43;;
10661;SDS011;5379;51.034;7.006;2024-02-14T16:50:00;1.60;;;1.50;;
10661;SDS011;5379;51.034;7.006;2024-02-14T16:52:29;3.70;;;1.60;;
10661;SDS011;5379;51.034;7.006;2024-02-14T16:54:57;2.57;;;1.93;;
10661;SDS011;5379;51.034;7.006;2024-02-14T16:57:25;1.27;;;1.23;;
10661;SDS011;5379;51.034;7.006;2024-02-14T16:59:52;1.20;;;1.20;;
10661;SDS011;5379;51.034;7.006;2024-02-14T17:02:19;8.73;;;1.43;;
10661;SDS011;5379;51.034;7.006;2024-02-14T17:04:46;1.67;;;1.57;;
10661;SDS011;5379;51.034;7.006;2024-02-14T17:07:15;2.73;;;1.53;;
10661;SDS011;5379;51.034;7.006;2024-02-14T17:09:43;1.20;;;1.10;;
10661;SDS011;5379;51.034;7.006;2024-02-14T17:12:10;2.73;;;1.73;;
10661;SDS011;5379;51.034;7.006;2024-02-14T17:14:37;1.20;;;1.20;;
10661;SDS011;5379;51.034;7.006;2024-02-14T17:17:04;1.60;;;1.50;;
10661;SDS011;5379;51.034;7.006;2024-02-14T17:19:31;1.17;;;1.17;;
10661;SDS011;5379;51.034;7.006;2024-02-14T17:21:59;1.40;;;1.40;;
10661;SDS011;5379;51.034;7.006;2024-02-14T17:24:26;1.40;;;1.37;;
10661;SDS011;5379;51.034;7.006;2024-02-14T17:26:54;3.40;;;1.50;;
10661;SDS011;5379;51.034;7.006;2024-02-14T17:29:21;1.63;;;1.53;;
10661;SDS011;5379;51.034;7.006;2024-02-14T17:31:48;2.17;;;1.60;;
10661;SDS011;5379;51.034;7.006;2024-02-14T17:34:15;1.67;;;1.57;;
10661;SDS011;5379;51.034;7.006;2024-02-14T17:36:43;1.37;;;1.33;;
10661;SDS011;5379;51.034;7.006;2024-02-14T17:39:10;2.30;;;1.23;;
10661;SDS011;5379;51.034;7.006;2024-02-14T17:41:37;1.67;;;1.23;;
10661;SDS011;5379;51.034;7.006;2024-02-14T17:44:06;1.53;;;1.43;;
10661;SDS011;5379;51.034;7.006;2024-02-14T17:46:33;1.03;;;1.03;;
10661;SDS011;5379;51.034;7.006;2024-02-14T17:49:00;1.23;;;1.20;;
10661;SDS011;5379;51.034;7.006;2024-02-14T17:51:27;4.13;;;1.27;;
10661;SDS011;5379;51.034;7.006;2024-02-14T17:53:55;6.00;;;1.80;;
10661;SDS011;5379;51.034;7.006;2024-02-14T17:56:22;7.53;;;1.50;;
10661;SDS011;5379;51.034;7.006;2024-02-14T17:58:50;1.27;;;1.20;;
10661;SDS011;5379;51.034;7.006;2024-02-14T18:01:18;1.57;;;1.47;;
10661;SDS011;5379;51.034;7.006;2024-02-14T18:03:45;1.80;;;1.70;;
10661;SDS011;5379;51.034;7.006;2024-02-14T18:06:11;2.00;;;1.90;;
10661;SDS011;5379;51.034;7.006;2024-02-14T18:08:38;1.43;;;1.33;;
10661;SDS011;5379;51.034;7.006;2024-02-14T18:11:05;2.47;;;1.57;;
10661;SDS011;5379;51.034;7.006;2024-02-14T18:13:32;3.77;;;2.07;;
10661;SDS011;5379;51.034;7.006;2024-02-14T18:15:59;2.17;;;1.57;;
10661;SDS011;5379;51.034;7.006;2024-02-14T18:18:27;3.10;;;2.80;;
10661;SDS011;5379;51.034;7.006;2024-02-14T18:20:54;2.43;;;2.33;;
10661;SDS011;5379;51.034;7.006;2024-02-14T18:23:22;1.40;;;1.40;;
10661;SDS011;5379;51.034;7.006;2024-02-14T18:25:48;2.83;;;2.07;;
10661;SDS011;5379;51.034;7.006;2024-02-14T18:28:15;2.33;;;2.00;;
10661;SDS011;5379;51.034;7.006;2024-02-14T18:30:42;1.63;;;1.53;;
10661;SDS011;5379;51.034;7.006;2024-02-14T18:33:10;1.33;;;1.33;;
10661;SDS011;5379;51.034;7.006;2024-02-14T18:35:38;1.60;;;1.57;;
10661;SDS011;5379;51.034;7.006;2024-02-14T18:38:05;1.97;;;1.87;;
10661;SDS011;5379;51.034;7.006;2024-02-14T18:40:34;1.20;;;1.20;;
10661;SDS011;5379;51.034;7.006;2024-02-14T18:43:01;2.33;;;1.97;;
10661;SDS011;5379;51.034;7.006;2024-02-14T18:45:28;1.83;;;1.73;;
10661;SDS011;5379;51.034;7.006;2024-02-14T18:47:55;1.80;;;1.70;;
10661;SDS011;5379;51.034;7.006;2024-02-14T18:50:22;1.47;;;1.43;;
10661;SDS011;5379;51.034;7.006;2024-02-14T18:52:50;2.40;;;2.20;;
10661;SDS011;5379;51.034;7.006;2024-02-14T18:55:18;1.90;;;1.80;;
10661;SDS011;5379;51.034;7.006;2024-02-14T18:57:45;2.60;;;2.40;;
10661;SDS011;5379;51.034;7.006;2024-02-14T19:00:12;2.43;;;2.23;;
10661;SDS011;5379;51.034;7.006;2024-02-14T19:02:39;2.03;;;1.93;;
10661;SDS011;5379;51.034;7.006;2024-02-14T19:05:07;3.23;;;2.03;;
10661;SDS011;5379;51.034;7.006;2024-02-14T19:07:34;3.03;;;2.23;;
10661;SDS011;5379;51.034;7.006;2024-02-14T19:10:03;3.00;;;2.23;;
10661;SDS011;5379;51.034;7.006;2024-02-14T19:12:31;3.23;;;2.53;;
10661;SDS011;5379;51.034;7.006;2024-02-14T19:14:58;2.10;;;1.63;;
10661;SDS011;5379;51.034;7.006;2024-02-14T19:17:28;1.50;;;1.47;;
10661;SDS011;5379;51.034;7.006;2024-02-14T19:19:55;2.47;;;1.70;;
10661;SDS011;5379;51.034;7.006;2024-02-14T19:22:22;1.83;;;1.53;;
10661;SDS011;5379;51.034;7.006;2024-02-14T19:24:48;2.57;;;1.67;;
10661;SDS011;5379;51.034;7.006;2024-02-14T19:27:17;28.63;;;2.57;;
10661;SDS011;5379;51.034;7.006;2024-02-14T19:29:43;2.13;;;2.00;;
10661;SDS011;5379;51.034;7.006;2024-02-14T19:32:10;3.50;;;2.13;;